Airfield :
LOGIN :

Register | Disclaimer

   EN    FR    IT 

 










Legend :    VFR   Marginal VFR   IFR   Intensive IFR   Very Intensive IFR
Visi :
Ceiling :
>= 8 km
>= 3000ft
5 to 8 km
1000 to 3000 ft
1500m to 5 km
500 to 1000 ft
800 to 1500m
200 to 500 ft
< 800m
< 200 ft
Symbols :   Thunderstorms  Fog  Heavy snow  Heavy precipitations  Wind > 20 kt
SIGMETs :     Misc.  Thunderstorms  Icing  Turbulence  Mountain Waves  Volcanic Ashes







- Airport Elevation : 1090 ft
- IATA code : CFE
- Download approach charts


LFLC - Clermont-Ferrand Auvergne

CURRENT METAR :
  • 240800Z AUTO 05006KT 020V090 9999 OVC025 20/13 Q1022 NOSIG

EXPIRED METARs :
  • 240730Z AUTO 05006KT 020V080 9999 BKN028 OVC037 20/14 Q1022 NOSIG
  • 240700Z AUTO 06007KT 030V090 9999 BKN030 OVC037 20/13 Q1022 NOSIG
  • 240630Z AUTO 06007KT 020V090 9999 BKN033 OVC046 20/14 Q1021 NOSIG
  • 240600Z AUTO 07007KT 9999 OVC038 20/16 Q1021 NOSIG
  • 240530Z AUTO 06006KT 9999 OVC037 21/16 Q1021 NOSIG

TAF TAF LFLC
Valid from the 23 at 15:00 until the 24 at 15:00 UTC


231400Z 2315/2415 36008KT CAVOK
PROB30 2315/2322 FEW070CB
ATIS : +33 4 73 62 74 38
No reported NOTAMs for that airfield.



MET'MAP, your aeronautical weather chart ! - Copyright ORBIFLY December 2007 - Disclaimer

ORBIFLY MET'MAP TEAM :

Programming & Development : Alexandra Zaïnal
Concept & Development : Baudouin d'Aumeries
Co-Development & Prog : Marc-Olivier Méhu
Technical & hardware support : Manuel Goepfert

Contact : metmap@orbifly.com




SOURCES & CREDITS :

   NOAA